createdAt,value
2022-12-24T00:03:00.226Z,6.40
2022-12-24T00:08:02.849Z,6.10
2022-12-24T00:13:05.402Z,6.00
2022-12-24T00:18:07.959Z,5.90
2022-12-24T00:23:10.649Z,5.80
2022-12-24T00:28:14.044Z,6.10
2022-12-24T00:33:22.460Z,6.90
2022-12-24T00:38:26.908Z,6.50
2022-12-24T00:43:30.581Z,5.90
2022-12-24T00:48:33.157Z,6.60
2022-12-24T00:53:35.635Z,7.50
2022-12-24T00:58:38.247Z,7.50
2022-12-24T01:03:41.003Z,8.10
2022-12-24T01:08:43.848Z,7.20
2022-12-24T01:13:46.312Z,6.60
2022-12-24T01:18:49.202Z,7.20
2022-12-24T01:23:53.050Z,7.70
2022-12-24T01:28:57.515Z,7.90
2022-12-24T01:34:00.020Z,8.10
2022-12-24T01:39:02.848Z,8.30
2022-12-24T01:44:22.383Z,8.30
2022-12-24T01:49:25.379Z,8.70
2022-12-24T01:54:44.632Z,8.10
2022-12-24T02:00:15.619Z,7.90
2022-12-24T02:05:31.172Z,8.50
2022-12-24T02:10:33.702Z,8.00
2022-12-24T02:15:49.024Z,7.70
2022-12-24T02:21:31.161Z,8.10
2022-12-24T02:26:58.051Z,8.70
2022-12-24T02:32:21.741Z,8.20
2022-12-24T02:37:38.290Z,8.20
2022-12-24T02:42:44.458Z,8.00
2022-12-24T02:47:49.019Z,8.30
2022-12-24T02:52:51.804Z,8.10
2022-12-24T02:58:06.288Z,8.30
2022-12-24T03:03:08.809Z,8.20
2022-12-24T03:08:50.706Z,8.00
2022-12-24T03:13:54.898Z,8.80
2022-12-24T03:19:00.145Z,8.70
2022-12-24T03:24:03.188Z,8.50
2022-12-24T03:29:07.698Z,8.30
2022-12-24T03:34:11.085Z,8.20
2022-12-24T03:39:14.293Z,8.00
2022-12-24T03:44:16.908Z,7.40
2022-12-24T03:49:19.503Z,8.30
2022-12-24T03:54:22.348Z,8.50
2022-12-24T03:59:24.782Z,8.40
2022-12-24T04:04:27.247Z,8.50
2022-12-24T04:09:29.852Z,8.10
2022-12-24T04:14:32.312Z,7.60
2022-12-24T04:19:35.161Z,7.20
2022-12-24T04:24:37.748Z,7.20
2022-12-24T04:29:40.298Z,7.00
2022-12-24T04:34:42.734Z,6.60
2022-12-24T04:39:45.202Z,6.40
2022-12-24T04:44:47.699Z,7.50
2022-12-24T04:49:50.773Z,7.00
2022-12-24T04:54:53.308Z,6.90
2022-12-24T04:59:55.915Z,6.70
2022-12-24T05:04:58.496Z,6.70
2022-12-24T05:10:01.009Z,6.30
2022-12-24T05:15:04.368Z,6.30
2022-12-24T05:20:07.560Z,6.80
2022-12-24T05:25:29.154Z,7.50
2022-12-24T05:30:31.721Z,7.70
2022-12-24T05:35:34.214Z,7.40
2022-12-24T05:40:36.643Z,8.30
2022-12-24T05:45:39.166Z,7.60
2022-12-24T05:50:41.806Z,7.40
2022-12-24T05:55:45.247Z,7.10
2022-12-24T06:00:47.698Z,6.90
2022-12-24T06:05:58.630Z,7.40
2022-12-24T06:11:05.869Z,7.10
2022-12-24T06:16:12.724Z,7.10
2022-12-24T06:21:15.767Z,6.80
2022-12-24T06:26:21.465Z,7.10
2022-12-24T06:31:24.431Z,7.40
2022-12-24T06:36:26.981Z,6.90
2022-12-24T06:41:29.478Z,7.70
2022-12-24T06:46:31.998Z,6.90
2022-12-24T06:51:34.585Z,6.50
2022-12-24T06:56:37.135Z,6.30
2022-12-24T07:01:39.648Z,6.60
2022-12-24T07:06:42.285Z,6.30
2022-12-24T07:11:44.751Z,6.00
2022-12-24T07:16:47.466Z,5.60
2022-12-24T07:21:50.359Z,5.50
2022-12-24T07:26:52.861Z,5.40
2022-12-24T07:31:55.807Z,5.10
2022-12-24T07:36:58.364Z,5.00
2022-12-24T07:42:01.181Z,5.30
2022-12-24T07:47:03.853Z,5.10
2022-12-24T07:52:06.441Z,5.10
2022-12-24T07:57:09.138Z,5.40
2022-12-24T08:02:17.975Z,5.80
2022-12-24T08:07:20.983Z,5.30
2022-12-24T08:12:24.587Z,5.70
2022-12-24T08:17:32.127Z,5.60
2022-12-24T08:22:35.226Z,5.30
2022-12-24T08:27:38.003Z,5.60
2022-12-24T08:32:40.700Z,5.80
2022-12-24T08:37:43.257Z,6.10
2022-12-24T08:42:45.768Z,5.80
2022-12-24T08:47:48.811Z,6.10
2022-12-24T08:52:51.707Z,6.00
2022-12-24T08:57:54.159Z,6.20
2022-12-24T09:02:57.429Z,6.30
2022-12-24T09:08:00.103Z,5.90
2022-12-24T09:13:02.690Z,6.90
2022-12-24T09:18:05.600Z,6.60
2022-12-24T09:23:08.173Z,6.50
2022-12-24T09:28:10.785Z,6.90
2022-12-24T09:33:13.303Z,7.00
2022-12-24T09:38:15.849Z,7.50
2022-12-24T09:43:27.355Z,7.90
2022-12-24T09:48:32.956Z,7.70
2022-12-24T09:53:38.508Z,8.10
2022-12-24T09:58:45.888Z,7.90
2022-12-24T10:03:48.693Z,7.10
2022-12-24T10:09:03.470Z,7.60
2022-12-24T10:14:11.856Z,7.90
2022-12-24T10:19:37.316Z,7.60
2022-12-24T10:24:50.541Z,8.30
2022-12-24T10:30:00.532Z,8.30
2022-12-24T10:35:15.412Z,8.10
2022-12-24T10:40:24.436Z,8.50
2022-12-24T10:45:39.853Z,8.90
2022-12-24T10:51:04.377Z,9.60
2022-12-24T10:56:10.441Z,8.50
2022-12-24T11:01:13.866Z,7.60
2022-12-24T11:06:22.785Z,8.20
2022-12-24T11:11:25.377Z,7.70
2022-12-24T11:16:33.753Z,8.70
2022-12-24T11:21:40.159Z,7.60
2022-12-24T11:26:44.657Z,7.00
2022-12-24T11:31:48.358Z,6.60
2022-12-24T11:36:53.223Z,6.60
2022-12-24T11:41:55.827Z,6.80
2022-12-24T11:46:58.529Z,6.80
2022-12-24T11:52:10.334Z,7.10
2022-12-24T11:57:15.153Z,7.10
2022-12-24T12:02:26.897Z,6.90
2022-12-24T12:07:33.956Z,7.30
2022-12-24T12:13:01.432Z,6.80
2022-12-24T12:18:15.372Z,6.70
2022-12-24T12:23:24.926Z,7.00
2022-12-24T12:28:32.458Z,6.60
2022-12-24T12:33:55.452Z,6.70
2022-12-24T12:38:58.104Z,6.40
2022-12-24T12:44:06.742Z,6.90
2022-12-24T12:49:27.157Z,6.70
2022-12-24T12:54:42.183Z,6.60
2022-12-24T12:59:55.133Z,7.30
2022-12-24T13:05:25.434Z,8.20
2022-12-24T13:11:02.662Z,8.40
2022-12-24T13:16:40.023Z,8.10
2022-12-24T13:21:45.505Z,7.90
2022-12-24T13:27:07.890Z,8.10
2022-12-24T13:32:22.282Z,8.30
2022-12-24T13:37:37.024Z,8.40
2022-12-24T13:42:58.129Z,8.30
2022-12-24T13:48:06.622Z,8.10
2022-12-24T13:53:35.481Z,8.30
2022-12-24T13:58:44.365Z,8.40
2022-12-24T14:03:57.980Z,7.40
2022-12-24T14:09:17.212Z,7.00
2022-12-24T14:14:40.721Z,6.80
2022-12-24T14:19:44.302Z,6.70
2022-12-24T14:25:09.717Z,6.90
2022-12-24T14:30:28.161Z,6.60
2022-12-24T14:35:39.799Z,6.50
2022-12-24T14:41:09.145Z,6.30
2022-12-24T14:46:33.743Z,5.20
2022-12-24T14:51:56.283Z,4.90
2022-12-24T14:57:11.332Z,4.50
2022-12-24T15:02:49.253Z,4.30
2022-12-24T15:24:47.520Z,4.60
2022-12-24T15:29:53.796Z,4.80
2022-12-24T15:34:56.353Z,5.00
2022-12-24T15:45:07.975Z,5.10
2022-12-24T15:50:27.219Z,5.00
2022-12-24T15:55:44.123Z,5.00
2022-12-24T16:01:02.023Z,4.90
2022-12-24T16:06:11.314Z,5.20
2022-12-24T16:11:26.279Z,4.90
2022-12-24T16:16:46.591Z,4.60
2022-12-24T16:21:54.372Z,4.50
2022-12-24T16:26:57.904Z,4.40
2022-12-24T16:32:00.830Z,4.30
2022-12-24T16:37:04.136Z,4.30
2022-12-24T16:42:25.132Z,4.30
2022-12-24T16:47:33.817Z,4.20
2022-12-24T16:52:39.858Z,4.20
2022-12-24T16:57:43.924Z,4.30
2022-12-24T17:02:47.826Z,4.40
2022-12-24T17:07:51.139Z,4.70
2022-12-24T17:12:54.012Z,4.60
2022-12-24T17:17:56.687Z,4.40
2022-12-24T17:22:59.268Z,4.50
2022-12-24T17:28:01.757Z,4.60
2022-12-24T17:33:06.987Z,4.70
2022-12-24T17:38:13.494Z,5.10
2022-12-24T17:43:16.165Z,5.10
2022-12-24T17:48:18.690Z,5.20
2022-12-24T17:53:21.288Z,5.50
2022-12-24T17:58:26.249Z,5.40
2022-12-24T18:03:29.178Z,5.80
2022-12-24T18:08:32.249Z,5.40
2022-12-24T18:13:35.131Z,4.90
2022-12-24T18:18:37.692Z,4.90
2022-12-24T18:23:43.407Z,4.80
2022-12-24T18:28:49.396Z,4.70
2022-12-24T18:33:53.185Z,4.60
2022-12-24T18:38:56.006Z,4.70
2022-12-24T18:43:59.727Z,4.70
2022-12-24T18:49:02.583Z,4.60
2022-12-24T18:54:06.588Z,4.60
2022-12-24T18:59:10.145Z,4.70
2022-12-24T19:04:15.052Z,4.80
2022-12-24T19:09:17.687Z,4.80
2022-12-24T19:14:20.523Z,5.20
2022-12-24T19:19:24.226Z,5.10
2022-12-24T19:24:26.698Z,4.80
2022-12-24T19:29:31.539Z,4.90
2022-12-24T19:34:34.143Z,5.10
2022-12-24T19:39:36.832Z,4.90
2022-12-24T19:44:39.422Z,4.80
2022-12-24T19:49:41.939Z,4.80
2022-12-24T19:54:44.407Z,4.80
2022-12-24T19:59:46.944Z,4.90
2022-12-24T20:04:50.928Z,5.30
2022-12-24T20:09:53.473Z,5.60
2022-12-24T20:14:56.927Z,5.20
2022-12-24T20:19:59.597Z,4.90
2022-12-24T20:25:02.189Z,4.80
2022-12-24T20:30:05.427Z,4.70
2022-12-24T20:35:08.426Z,4.60
2022-12-24T20:40:11.207Z,4.40
2022-12-24T20:45:15.832Z,4.70
2022-12-24T20:50:18.876Z,5.00
2022-12-24T20:55:21.700Z,5.10
2022-12-24T21:00:25.203Z,5.30
2022-12-24T21:05:27.849Z,5.30
2022-12-24T21:10:34.190Z,5.10
2022-12-24T21:15:40.099Z,4.90
2022-12-24T21:20:43.509Z,4.90
2022-12-24T21:25:46.068Z,4.90
2022-12-24T21:30:48.598Z,4.90
2022-12-24T21:37:01.581Z,5.00
2022-12-24T21:42:06.927Z,4.80
2022-12-24T21:47:11.077Z,4.90
2022-12-24T21:52:16.628Z,5.00
2022-12-24T21:57:37.648Z,5.00
2022-12-24T22:02:40.513Z,5.60
2022-12-24T22:08:01.916Z,6.00
2022-12-24T22:13:07.437Z,5.80
2022-12-24T22:18:10.039Z,5.40
2022-12-24T22:23:13.707Z,5.30
2022-12-24T22:28:16.355Z,5.20
2022-12-24T22:33:18.989Z,5.20
2022-12-24T22:38:21.746Z,5.00
2022-12-24T22:43:24.450Z,5.00
2022-12-24T22:48:27.219Z,4.90
2022-12-24T22:53:29.732Z,4.90
2022-12-24T22:58:32.320Z,4.90
2022-12-24T23:03:35.105Z,5.00
2022-12-24T23:08:38.224Z,5.00
2022-12-24T23:14:02.017Z,5.20
2022-12-24T23:19:05.954Z,5.90
2022-12-24T23:24:11.150Z,6.30
2022-12-24T23:29:13.809Z,6.60
2022-12-24T23:34:16.952Z,6.40
2022-12-24T23:39:19.738Z,6.30
2022-12-24T23:44:26.704Z,6.10
2022-12-24T23:49:32.787Z,6.20
2022-12-24T23:54:35.339Z,6.30
2022-12-24T23:59:37.904Z,6.50
